Lansing, MI (48901)

1:18 PM EST on February 07, 2016 (GMT -0500)
Hunter Park | | Change Station
CLOSE
Current Station
Personal Weather Station
Location: Lansing, MI
Elevation: 856 ft
Nearby Weather Stations

Elev 856 ft 42.73 °N, 84.53 °W | Updated 2 minutes ago

Mostly Cloudy
Mostly Cloudy
45.3 °F
Feels Like 43 °F
N
4.7
Wind Variable Wind from SW

Today
High -- | Low -- °F
--% Chance of Precip.
Yesterday
High -- | Low -- °F
Precip. -- in
Pressure 29.79 in
Visibility 10.0 miles
Clouds Scattered Clouds 11000 ft
Windchill 43 °F
Dew Point 32 °F
Humidity 60%
Rainfall 0.00 in
Snow Depth Not available.
7:46 AM 5:58 PM
Waning Crescent, 1% visible
METAR KLAN 071753Z 19016G23KT 10SM SCT110 07/M01 A2977 RMK AO2 SLP088 T00671011 10067 20011 58031 $
Pressure 29.79 in
Visibility 10.0 miles
Clouds Scattered Clouds 11000 ft
Windchill 43 °F
Dew Point 32 °F
Humidity 60%
Rainfall 0.00 in
Snow Depth Not available.
7:46 AM 5:58 PM
Waning Crescent, 1% visible
METAR KLAN 071753Z 19016G23KT 10SM SCT110 07/M01 A2977 RMK AO2 SLP088 T00671011 10067 20011 58031 $

10-Day Weather Forecast

Almanac

Astronomy

Feb. 07, 2016 Rise Set
Actual Time
Civil Twilight
Nautical Twilight
Astronomical Twilight
Moon
Length of Visible Light
Length of Day
Tomorrow will be .
, % of the Moon is Illuminated

Today's Extremes

State Highs State Lows

Community

WunderPhotos

Upload Photos

1,891,274 photos uploaded!

WunderBlog® & News

Nearby

Air Quality

  Air Quality AQ Index Pollutant
Not available.

Snow Depth

Station Depth Elevation

Earthquake Activity

City Distance Mag. Time & Date
Minimum magnitude displayed is 2.5.

Coastal Water Temperatures

Place Temperature

Stations

Nearby Weather Stations

Station Location Temp. Windchill Dew Point Humidity Wind Precip. Elev Updated Type
                   

Watches & Warnings

There are currently no watches in effect.